sensor_id;sensor_type;location;lat;lon;timestamp;P1;durP1;ratioP1;P2;durP2;ratioP2
15748;SDS011;7976;52.526;13.326;2024-02-04T00:00:11;10.25;;;2.22;;
15748;SDS011;7976;52.526;13.326;2024-02-04T00:02:40;10.93;;;1.85;;
15748;SDS011;7976;52.526;13.326;2024-02-04T00:05:07;10.02;;;1.70;;
15748;SDS011;7976;52.526;13.326;2024-02-04T00:07:34;15.68;;;2.15;;
15748;SDS011;7976;52.526;13.326;2024-02-04T00:10:01;13.45;;;2.75;;
15748;SDS011;7976;52.526;13.326;2024-02-04T00:12:28;9.38;;;1.95;;
15748;SDS011;7976;52.526;13.326;2024-02-04T00:14:55;10.32;;;2.13;;
15748;SDS011;7976;52.526;13.326;2024-02-04T00:17:22;14.38;;;2.63;;
15748;SDS011;7976;52.526;13.326;2024-02-04T00:19:56;8.25;;;1.67;;
15748;SDS011;7976;52.526;13.326;2024-02-04T00:22:23;16.58;;;2.55;;
15748;SDS011;7976;52.526;13.326;2024-02-04T00:24:50;8.55;;;1.90;;
15748;SDS011;7976;52.526;13.326;2024-02-04T00:27:17;10.10;;;2.50;;
15748;SDS011;7976;52.526;13.326;2024-02-04T00:29:43;10.25;;;2.35;;
15748;SDS011;7976;52.526;13.326;2024-02-04T00:32:10;12.68;;;1.58;;
15748;SDS011;7976;52.526;13.326;2024-02-04T00:34:37;12.85;;;2.80;;
15748;SDS011;7976;52.526;13.326;2024-02-04T00:37:06;10.45;;;2.17;;
15748;SDS011;7976;52.526;13.326;2024-02-04T00:39:32;11.27;;;2.33;;
15748;SDS011;7976;52.526;13.326;2024-02-04T00:41:59;13.63;;;2.22;;
15748;SDS011;7976;52.526;13.326;2024-02-04T00:44:26;15.05;;;3.35;;
15748;SDS011;7976;52.526;13.326;2024-02-04T00:46:53;12.75;;;2.25;;
15748;SDS011;7976;52.526;13.326;2024-02-04T00:49:20;9.00;;;1.50;;
15748;SDS011;7976;52.526;13.326;2024-02-04T00:51:47;10.55;;;2.00;;
15748;SDS011;7976;52.526;13.326;2024-02-04T00:54:15;15.77;;;2.63;;
15748;SDS011;7976;52.526;13.326;2024-02-04T00:56:41;10.93;;;2.15;;
15748;SDS011;7976;52.526;13.326;2024-02-04T00:59:08;12.18;;;2.42;;
15748;SDS011;7976;52.526;13.326;2024-02-04T01:01:36;10.70;;;1.98;;
15748;SDS011;7976;52.526;13.326;2024-02-04T01:04:03;8.13;;;1.98;;
15748;SDS011;7976;52.526;13.326;2024-02-04T01:06:30;11.02;;;2.55;;
15748;SDS011;7976;52.526;13.326;2024-02-04T01:08:57;13.63;;;2.15;;
15748;SDS011;7976;52.526;13.326;2024-02-04T01:11:25;13.43;;;2.10;;
15748;SDS011;7976;52.526;13.326;2024-02-04T01:13:54;12.77;;;2.35;;
15748;SDS011;7976;52.526;13.326;2024-02-04T01:16:21;13.85;;;2.65;;
15748;SDS011;7976;52.526;13.326;2024-02-04T01:18:48;15.52;;;2.35;;
15748;SDS011;7976;52.526;13.326;2024-02-04T01:21:15;12.02;;;2.22;;
15748;SDS011;7976;52.526;13.326;2024-02-04T01:23:42;14.15;;;2.33;;
15748;SDS011;7976;52.526;13.326;2024-02-04T01:26:08;15.95;;;2.97;;
15748;SDS011;7976;52.526;13.326;2024-02-04T01:28:37;17.92;;;2.40;;
15748;SDS011;7976;52.526;13.326;2024-02-04T01:31:03;9.77;;;2.30;;
15748;SDS011;7976;52.526;13.326;2024-02-04T01:33:30;9.43;;;2.03;;
15748;SDS011;7976;52.526;13.326;2024-02-04T01:35:57;14.95;;;2.72;;
15748;SDS011;7976;52.526;13.326;2024-02-04T01:38:24;11.52;;;1.95;;
15748;SDS011;7976;52.526;13.326;2024-02-04T01:40:51;16.65;;;2.45;;
15748;SDS011;7976;52.526;13.326;2024-02-04T01:43:19;10.98;;;2.10;;
15748;SDS011;7976;52.526;13.326;2024-02-04T01:45:49;11.90;;;2.45;;
15748;SDS011;7976;52.526;13.326;2024-02-04T01:48:17;13.48;;;2.05;;
15748;SDS011;7976;52.526;13.326;2024-02-04T01:50:46;15.32;;;1.95;;
15748;SDS011;7976;52.526;13.326;2024-02-04T01:53:15;17.52;;;2.17;;
15748;SDS011;7976;52.526;13.326;2024-02-04T01:55:44;11.15;;;1.80;;
15748;SDS011;7976;52.526;13.326;2024-02-04T01:58:11;17.52;;;2.55;;
15748;SDS011;7976;52.526;13.326;2024-02-04T02:00:38;10.18;;;1.75;;
15748;SDS011;7976;52.526;13.326;2024-02-04T02:03:06;9.40;;;1.92;;
15748;SDS011;7976;52.526;13.326;2024-02-04T02:05:37;12.75;;;2.05;;
15748;SDS011;7976;52.526;13.326;2024-02-04T02:08:06;11.95;;;2.20;;
15748;SDS011;7976;52.526;13.326;2024-02-04T02:10:33;14.77;;;2.33;;
15748;SDS011;7976;52.526;13.326;2024-02-04T02:13:04;16.10;;;2.42;;
15748;SDS011;7976;52.526;13.326;2024-02-04T02:15:42;11.68;;;1.92;;
15748;SDS011;7976;52.526;13.326;2024-02-04T02:18:15;7.28;;;1.80;;
15748;SDS011;7976;52.526;13.326;2024-02-04T02:20:55;11.02;;;1.83;;
15748;SDS011;7976;52.526;13.326;2024-02-04T02:23:48;9.65;;;2.33;;
15748;SDS011;7976;52.526;13.326;2024-02-04T02:26:30;8.30;;;1.50;;
15748;SDS011;7976;52.526;13.326;2024-02-04T02:28:58;11.00;;;1.75;;
15748;SDS011;7976;52.526;13.326;2024-02-04T02:31:25;14.23;;;2.90;;
15748;SDS011;7976;52.526;13.326;2024-02-04T02:33:52;9.77;;;1.80;;
15748;SDS011;7976;52.526;13.326;2024-02-04T02:36:20;14.23;;;2.08;;
15748;SDS011;7976;52.526;13.326;2024-02-04T02:38:50;10.27;;;1.63;;
15748;SDS011;7976;52.526;13.326;2024-02-04T02:41:29;11.65;;;1.85;;
15748;SDS011;7976;52.526;13.326;2024-02-04T02:44:00;8.35;;;1.58;;
15748;SDS011;7976;52.526;13.326;2024-02-04T02:46:31;11.60;;;1.75;;
15748;SDS011;7976;52.526;13.326;2024-02-04T02:48:58;12.32;;;1.77;;
15748;SDS011;7976;52.526;13.326;2024-02-04T02:51:25;13.52;;;1.77;;
15748;SDS011;7976;52.526;13.326;2024-02-04T02:53:52;13.50;;;2.03;;
15748;SDS011;7976;52.526;13.326;2024-02-04T02:56:18;16.83;;;2.33;;
15748;SDS011;7976;52.526;13.326;2024-02-04T02:58:46;13.13;;;2.45;;
15748;SDS011;7976;52.526;13.326;2024-02-04T03:01:12;11.20;;;2.13;;
15748;SDS011;7976;52.526;13.326;2024-02-04T03:03:39;16.25;;;1.83;;
15748;SDS011;7976;52.526;13.326;2024-02-04T03:06:06;13.13;;;2.15;;
15748;SDS011;7976;52.526;13.326;2024-02-04T03:08:33;11.77;;;1.63;;
15748;SDS011;7976;52.526;13.326;2024-02-04T03:11:00;12.68;;;1.92;;
15748;SDS011;7976;52.526;13.326;2024-02-04T03:13:27;11.85;;;2.17;;
15748;SDS011;7976;52.526;13.326;2024-02-04T03:15:56;9.50;;;2.50;;
15748;SDS011;7976;52.526;13.326;2024-02-04T03:18:23;13.98;;;2.30;;
15748;SDS011;7976;52.526;13.326;2024-02-04T03:20:50;13.85;;;2.40;;
15748;SDS011;7976;52.526;13.326;2024-02-04T03:23:17;13.20;;;2.35;;
15748;SDS011;7976;52.526;13.326;2024-02-04T03:25:44;8.10;;;1.65;;
15748;SDS011;7976;52.526;13.326;2024-02-04T03:28:11;10.45;;;1.98;;
15748;SDS011;7976;52.526;13.326;2024-02-04T03:30:38;10.95;;;2.20;;
15748;SDS011;7976;52.526;13.326;2024-02-04T03:33:06;12.20;;;2.60;;
15748;SDS011;7976;52.526;13.326;2024-02-04T03:35:33;11.82;;;2.20;;
15748;SDS011;7976;52.526;13.326;2024-02-04T03:38:02;14.07;;;2.50;;
15748;SDS011;7976;52.526;13.326;2024-02-04T03:40:29;11.65;;;2.20;;
15748;SDS011;7976;52.526;13.326;2024-02-04T03:42:56;7.80;;;2.38;;
15748;SDS011;7976;52.526;13.326;2024-02-04T03:45:26;11.07;;;2.17;;
15748;SDS011;7976;52.526;13.326;2024-02-04T03:47:53;8.48;;;2.13;;
15748;SDS011;7976;52.526;13.326;2024-02-04T03:50:21;13.23;;;2.35;;
15748;SDS011;7976;52.526;13.326;2024-02-04T03:52:48;12.07;;;2.20;;
15748;SDS011;7976;52.526;13.326;2024-02-04T03:55:15;9.57;;;2.17;;
15748;SDS011;7976;52.526;13.326;2024-02-04T03:57:42;13.02;;;2.30;;
15748;SDS011;7976;52.526;13.326;2024-02-04T04:00:09;11.13;;;2.58;;
15748;SDS011;7976;52.526;13.326;2024-02-04T04:02:39;13.48;;;2.10;;
15748;SDS011;7976;52.526;13.326;2024-02-04T04:05:06;13.82;;;2.20;;
15748;SDS011;7976;52.526;13.326;2024-02-04T04:07:39;11.15;;;2.28;;
15748;SDS011;7976;52.526;13.326;2024-02-04T04:10:06;9.35;;;2.00;;
15748;SDS011;7976;52.526;13.326;2024-02-04T04:12:33;7.80;;;2.10;;
15748;SDS011;7976;52.526;13.326;2024-02-04T04:15:00;11.70;;;2.30;;
15748;SDS011;7976;52.526;13.326;2024-02-04T04:17:27;11.05;;;2.47;;
15748;SDS011;7976;52.526;13.326;2024-02-04T04:19:53;9.95;;;2.20;;
15748;SDS011;7976;52.526;13.326;2024-02-04T04:22:20;11.93;;;2.45;;
15748;SDS011;7976;52.526;13.326;2024-02-04T04:24:48;8.10;;;2.00;;
15748;SDS011;7976;52.526;13.326;2024-02-04T04:27:15;8.95;;;2.00;;
15748;SDS011;7976;52.526;13.326;2024-02-04T04:29:42;9.93;;;2.00;;
15748;SDS011;7976;52.526;13.326;2024-02-04T04:32:09;9.63;;;2.30;;
15748;SDS011;7976;52.526;13.326;2024-02-04T04:34:35;12.25;;;2.08;;
15748;SDS011;7976;52.526;13.326;2024-02-04T04:37:02;11.52;;;1.80;;
15748;SDS011;7976;52.526;13.326;2024-02-04T04:39:29;12.52;;;2.25;;
15748;SDS011;7976;52.526;13.326;2024-02-04T04:41:57;9.73;;;2.25;;
15748;SDS011;7976;52.526;13.326;2024-02-04T04:44:24;9.70;;;2.13;;
15748;SDS011;7976;52.526;13.326;2024-02-04T04:46:51;10.43;;;1.98;;
15748;SDS011;7976;52.526;13.326;2024-02-04T04:49:18;5.47;;;1.73;;
15748;SDS011;7976;52.526;13.326;2024-02-04T04:51:45;9.13;;;1.92;;
15748;SDS011;7976;52.526;13.326;2024-02-04T04:54:12;6.18;;;1.85;;
15748;SDS011;7976;52.526;13.326;2024-02-04T04:56:39;6.85;;;1.65;;
15748;SDS011;7976;52.526;13.326;2024-02-04T04:59:07;7.90;;;1.65;;
15748;SDS011;7976;52.526;13.326;2024-02-04T05:01:34;6.78;;;1.70;;
15748;SDS011;7976;52.526;13.326;2024-02-04T05:04:01;6.22;;;1.65;;
15748;SDS011;7976;52.526;13.326;2024-02-04T05:06:28;6.95;;;1.60;;
15748;SDS011;7976;52.526;13.326;2024-02-04T05:08:55;10.75;;;2.00;;
15748;SDS011;7976;52.526;13.326;2024-02-04T05:11:21;8.82;;;1.58;;
15748;SDS011;7976;52.526;13.326;2024-02-04T05:13:48;6.45;;;1.20;;
15748;SDS011;7976;52.526;13.326;2024-02-04T05:16:16;8.55;;;1.80;;
15748;SDS011;7976;52.526;13.326;2024-02-04T05:18:43;9.10;;;1.83;;
15748;SDS011;7976;52.526;13.326;2024-02-04T05:21:10;10.95;;;1.70;;
15748;SDS011;7976;52.526;13.326;2024-02-04T05:23:37;8.88;;;1.52;;
15748;SDS011;7976;52.526;13.326;2024-02-04T05:26:04;8.35;;;1.98;;
15748;SDS011;7976;52.526;13.326;2024-02-04T05:28:31;14.45;;;2.10;;
15748;SDS011;7976;52.526;13.326;2024-02-04T05:30:58;8.35;;;1.80;;
15748;SDS011;7976;52.526;13.326;2024-02-04T05:33:29;6.47;;;1.58;;
15748;SDS011;7976;52.526;13.326;2024-02-04T05:35:56;8.40;;;1.65;;
15748;SDS011;7976;52.526;13.326;2024-02-04T05:38:23;8.23;;;1.27;;
15748;SDS011;7976;52.526;13.326;2024-02-04T05:40:49;8.23;;;1.58;;
15748;SDS011;7976;52.526;13.326;2024-02-04T05:43:16;11.32;;;1.70;;
15748;SDS011;7976;52.526;13.326;2024-02-04T05:45:43;9.65;;;1.92;;
15748;SDS011;7976;52.526;13.326;2024-02-04T05:48:10;5.82;;;1.27;;
15748;SDS011;7976;52.526;13.326;2024-02-04T05:50:39;8.18;;;1.88;;
15748;SDS011;7976;52.526;13.326;2024-02-04T05:53:07;10.63;;;1.80;;
15748;SDS011;7976;52.526;13.326;2024-02-04T05:55:33;11.15;;;1.65;;
15748;SDS011;7976;52.526;13.326;2024-02-04T05:58:00;6.45;;;1.58;;
15748;SDS011;7976;52.526;13.326;2024-02-04T06:00:27;7.28;;;1.70;;
15748;SDS011;7976;52.526;13.326;2024-02-04T06:02:54;7.30;;;1.55;;
15748;SDS011;7976;52.526;13.326;2024-02-04T06:05:21;8.77;;;2.28;;
15748;SDS011;7976;52.526;13.326;2024-02-04T06:07:49;13.35;;;1.80;;
15748;SDS011;7976;52.526;13.326;2024-02-04T06:10:15;8.82;;;2.00;;
15748;SDS011;7976;52.526;13.326;2024-02-04T06:12:43;6.50;;;1.65;;
15748;SDS011;7976;52.526;13.326;2024-02-04T06:15:12;9.20;;;2.13;;
15748;SDS011;7976;52.526;13.326;2024-02-04T06:17:39;9.10;;;2.08;;
15748;SDS011;7976;52.526;13.326;2024-02-04T06:20:07;7.70;;;2.13;;
15748;SDS011;7976;52.526;13.326;2024-02-04T06:22:35;6.90;;;1.95;;
15748;SDS011;7976;52.526;13.326;2024-02-04T06:25:03;9.15;;;2.00;;
15748;SDS011;7976;52.526;13.326;2024-02-04T06:27:31;10.95;;;2.05;;
15748;SDS011;7976;52.526;13.326;2024-02-04T06:29:58;8.18;;;1.85;;
15748;SDS011;7976;52.526;13.326;2024-02-04T06:32:25;9.38;;;1.98;;
15748;SDS011;7976;52.526;13.326;2024-02-04T06:34:51;8.95;;;1.90;;
15748;SDS011;7976;52.526;13.326;2024-02-04T06:37:20;8.68;;;2.03;;
15748;SDS011;7976;52.526;13.326;2024-02-04T06:39:47;7.60;;;2.25;;
15748;SDS011;7976;52.526;13.326;2024-02-04T06:42:15;10.93;;;2.40;;
15748;SDS011;7976;52.526;13.326;2024-02-04T06:44:43;9.77;;;2.35;;
15748;SDS011;7976;52.526;13.326;2024-02-04T06:47:11;9.70;;;2.05;;
15748;SDS011;7976;52.526;13.326;2024-02-04T06:49:39;8.85;;;2.40;;
15748;SDS011;7976;52.526;13.326;2024-02-04T06:52:06;10.45;;;2.45;;
15748;SDS011;7976;52.526;13.326;2024-02-04T06:54:33;10.02;;;2.95;;
15748;SDS011;7976;52.526;13.326;2024-02-04T06:57:00;12.57;;;2.60;;
15748;SDS011;7976;52.526;13.326;2024-02-04T06:59:28;10.25;;;2.60;;
15748;SDS011;7976;52.526;13.326;2024-02-04T07:01:55;11.90;;;2.70;;
15748;SDS011;7976;52.526;13.326;2024-02-04T07:04:22;10.50;;;2.95;;
15748;SDS011;7976;52.526;13.326;2024-02-04T07:06:49;14.18;;;2.85;;
15748;SDS011;7976;52.526;13.326;2024-02-04T07:09:16;9.85;;;2.50;;
15748;SDS011;7976;52.526;13.326;2024-02-04T07:11:43;9.43;;;3.08;;
15748;SDS011;7976;52.526;13.326;2024-02-04T07:14:10;10.43;;;3.53;;
15748;SDS011;7976;52.526;13.326;2024-02-04T07:16:38;11.15;;;3.05;;
15748;SDS011;7976;52.526;13.326;2024-02-04T07:19:05;13.52;;;3.30;;
15748;SDS011;7976;52.526;13.326;2024-02-04T07:21:32;11.90;;;3.25;;
15748;SDS011;7976;52.526;13.326;2024-02-04T07:23:59;10.80;;;2.97;;
15748;SDS011;7976;52.526;13.326;2024-02-04T07:26:26;11.80;;;3.40;;
15748;SDS011;7976;52.526;13.326;2024-02-04T07:28:53;11.90;;;3.50;;
15748;SDS011;7976;52.526;13.326;2024-02-04T07:31:20;14.30;;;3.08;;
15748;SDS011;7976;52.526;13.326;2024-02-04T07:33:49;10.60;;;3.35;;
15748;SDS011;7976;52.526;13.326;2024-02-04T07:36:16;17.60;;;3.20;;
15748;SDS011;7976;52.526;13.326;2024-02-04T07:38:43;11.32;;;3.28;;
15748;SDS011;7976;52.526;13.326;2024-02-04T07:41:09;12.50;;;2.97;;
15748;SDS011;7976;52.526;13.326;2024-02-04T07:43:40;15.18;;;3.10;;
15748;SDS011;7976;52.526;13.326;2024-02-04T07:46:09;9.98;;;3.17;;
15748;SDS011;7976;52.526;13.326;2024-02-04T07:48:35;10.35;;;3.38;;
15748;SDS011;7976;52.526;13.326;2024-02-04T07:51:03;11.90;;;3.42;;
15748;SDS011;7976;52.526;13.326;2024-02-04T07:53:30;11.60;;;3.30;;
15748;SDS011;7976;52.526;13.326;2024-02-04T07:55:57;13.95;;;3.38;;
15748;SDS011;7976;52.526;13.326;2024-02-04T07:58:24;10.13;;;3.40;;
15748;SDS011;7976;52.526;13.326;2024-02-04T08:00:52;14.98;;;3.50;;
15748;SDS011;7976;52.526;13.326;2024-02-04T08:03:19;14.25;;;3.67;;
15748;SDS011;7976;52.526;13.326;2024-02-04T08:05:46;12.77;;;3.28;;
15748;SDS011;7976;52.526;13.326;2024-02-04T08:08:14;12.82;;;3.75;;
15748;SDS011;7976;52.526;13.326;2024-02-04T08:10:41;11.07;;;3.13;;
15748;SDS011;7976;52.526;13.326;2024-02-04T08:13:08;12.90;;;2.83;;
15748;SDS011;7976;52.526;13.326;2024-02-04T08:15:35;11.38;;;3.13;;
15748;SDS011;7976;52.526;13.326;2024-02-04T08:18:01;14.52;;;3.45;;
15748;SDS011;7976;52.526;13.326;2024-02-04T08:20:29;12.75;;;3.40;;
15748;SDS011;7976;52.526;13.326;2024-02-04T08:22:56;10.88;;;2.80;;
15748;SDS011;7976;52.526;13.326;2024-02-04T08:25:24;13.88;;;3.33;;
15748;SDS011;7976;52.526;13.326;2024-02-04T08:27:50;10.90;;;3.30;;
15748;SDS011;7976;52.526;13.326;2024-02-04T08:30:17;12.10;;;2.78;;
15748;SDS011;7976;52.526;13.326;2024-02-04T08:32:45;13.00;;;2.83;;
15748;SDS011;7976;52.526;13.326;2024-02-04T08:35:12;9.98;;;2.17;;
15748;SDS011;7976;52.526;13.326;2024-02-04T08:37:39;15.88;;;3.25;;
15748;SDS011;7976;52.526;13.326;2024-02-04T08:40:06;14.75;;;2.60;;
15748;SDS011;7976;52.526;13.326;2024-02-04T08:42:36;12.20;;;2.50;;
15748;SDS011;7976;52.526;13.326;2024-02-04T08:45:04;9.25;;;2.45;;
15748;SDS011;7976;52.526;13.326;2024-02-04T08:47:32;11.65;;;2.75;;
15748;SDS011;7976;52.526;13.326;2024-02-04T08:49:59;10.07;;;2.10;;
15748;SDS011;7976;52.526;13.326;2024-02-04T08:52:25;10.10;;;1.98;;
15748;SDS011;7976;52.526;13.326;2024-02-04T08:54:53;12.80;;;2.45;;
15748;SDS011;7976;52.526;13.326;2024-02-04T08:57:20;11.13;;;2.20;;
15748;SDS011;7976;52.526;13.326;2024-02-04T08:59:48;12.60;;;2.25;;
15748;SDS011;7976;52.526;13.326;2024-02-04T09:02:15;13.05;;;2.33;;
15748;SDS011;7976;52.526;13.326;2024-02-04T09:04:42;8.77;;;2.10;;
15748;SDS011;7976;52.526;13.326;2024-02-04T09:07:09;7.97;;;2.15;;
15748;SDS011;7976;52.526;13.326;2024-02-04T09:09:36;9.77;;;2.08;;
15748;SDS011;7976;52.526;13.326;2024-02-04T09:12:03;9.75;;;2.00;;
15748;SDS011;7976;52.526;13.326;2024-02-04T09:14:30;7.78;;;1.88;;
15748;SDS011;7976;52.526;13.326;2024-02-04T09:16:58;13.30;;;2.47;;
15748;SDS011;7976;52.526;13.326;2024-02-04T09:19:28;10.60;;;2.33;;
15748;SDS011;7976;52.526;13.326;2024-02-04T09:21:56;12.43;;;2.50;;
15748;SDS011;7976;52.526;13.326;2024-02-04T09:24:22;14.15;;;2.10;;
15748;SDS011;7976;52.526;13.326;2024-02-04T09:26:51;8.98;;;2.13;;
15748;SDS011;7976;52.526;13.326;2024-02-04T09:29:18;11.07;;;2.15;;
15748;SDS011;7976;52.526;13.326;2024-02-04T09:31:47;9.50;;;1.85;;
15748;SDS011;7976;52.526;13.326;2024-02-04T09:34:16;9.25;;;2.13;;
15748;SDS011;7976;52.526;13.326;2024-02-04T09:36:43;9.07;;;1.85;;
15748;SDS011;7976;52.526;13.326;2024-02-04T09:39:10;8.27;;;1.80;;
15748;SDS011;7976;52.526;13.326;2024-02-04T09:41:37;9.27;;;1.88;;
15748;SDS011;7976;52.526;13.326;2024-02-04T09:44:04;13.30;;;1.95;;
15748;SDS011;7976;52.526;13.326;2024-02-04T09:46:33;6.82;;;1.58;;
15748;SDS011;7976;52.526;13.326;2024-02-04T09:49:00;8.60;;;1.60;;
15748;SDS011;7976;52.526;13.326;2024-02-04T09:51:29;9.40;;;1.67;;
15748;SDS011;7976;52.526;13.326;2024-02-04T09:53:58;5.13;;;1.55;;
15748;SDS011;7976;52.526;13.326;2024-02-04T09:56:31;8.45;;;1.55;;
15748;SDS011;7976;52.526;13.326;2024-02-04T09:59:00;12.40;;;1.83;;
15748;SDS011;7976;52.526;13.326;2024-02-04T10:01:27;8.07;;;1.67;;
15748;SDS011;7976;52.526;13.326;2024-02-04T10:03:57;9.95;;;1.63;;
15748;SDS011;7976;52.526;13.326;2024-02-04T10:06:24;9.48;;;1.55;;
15748;SDS011;7976;52.526;13.326;2024-02-04T10:08:52;6.10;;;1.50;;
15748;SDS011;7976;52.526;13.326;2024-02-04T10:11:19;7.97;;;1.50;;
15748;SDS011;7976;52.526;13.326;2024-02-04T10:13:47;9.82;;;1.58;;
15748;SDS011;7976;52.526;13.326;2024-02-04T10:16:15;7.47;;;1.40;;
15748;SDS011;7976;52.526;13.326;2024-02-04T10:18:43;8.95;;;1.63;;
15748;SDS011;7976;52.526;13.326;2024-02-04T10:21:15;8.82;;;1.65;;
15748;SDS011;7976;52.526;13.326;2024-02-04T10:23:44;9.95;;;1.40;;
15748;SDS011;7976;52.526;13.326;2024-02-04T10:26:13;12.60;;;1.50;;
15748;SDS011;7976;52.526;13.326;2024-02-04T10:28:40;7.53;;;1.27;;
15748;SDS011;7976;52.526;13.326;2024-02-04T10:31:08;5.95;;;1.40;;
15748;SDS011;7976;52.526;13.326;2024-02-04T10:33:35;6.15;;;1.35;;
15748;SDS011;7976;52.526;13.326;2024-02-04T10:36:03;5.57;;;1.20;;
15748;SDS011;7976;52.526;13.326;2024-02-04T10:38:31;4.60;;;1.05;;
15748;SDS011;7976;52.526;13.326;2024-02-04T10:40:59;5.22;;;1.02;;
15748;SDS011;7976;52.526;13.326;2024-02-04T10:43:30;8.27;;;1.85;;
15748;SDS011;7976;52.526;13.326;2024-02-04T10:46:00;8.70;;;1.40;;
15748;SDS011;7976;52.526;13.326;2024-02-04T10:48:36;14.30;;;2.10;;
15748;SDS011;7976;52.526;13.326;2024-02-04T10:51:08;6.72;;;1.48;;
15748;SDS011;7976;52.526;13.326;2024-02-04T10:53:41;8.85;;;1.40;;
15748;SDS011;7976;52.526;13.326;2024-02-04T10:56:10;3.95;;;1.08;;
15748;SDS011;7976;52.526;13.326;2024-02-04T10:58:49;7.10;;;1.40;;
15748;SDS011;7976;52.526;13.326;2024-02-04T11:01:18;10.75;;;1.45;;
15748;SDS011;7976;52.526;13.326;2024-02-04T11:03:46;7.60;;;1.38;;
15748;SDS011;7976;52.526;13.326;2024-02-04T11:06:13;5.57;;;1.33;;
15748;SDS011;7976;52.526;13.326;2024-02-04T11:08:41;4.20;;;1.30;;
15748;SDS011;7976;52.526;13.326;2024-02-04T11:11:08;7.70;;;1.23;;
15748;SDS011;7976;52.526;13.326;2024-02-04T11:13:36;4.70;;;1.42;;
15748;SDS011;7976;52.526;13.326;2024-02-04T11:16:12;6.03;;;1.35;;
15748;SDS011;7976;52.526;13.326;2024-02-04T11:18:58;9.82;;;1.65;;
15748;SDS011;7976;52.526;13.326;2024-02-04T11:21:48;8.45;;;1.50;;
15748;SDS011;7976;52.526;13.326;2024-02-04T11:24:43;9.82;;;2.08;;
15748;SDS011;7976;52.526;13.326;2024-02-04T11:27:40;12.68;;;1.63;;
15748;SDS011;7976;52.526;13.326;2024-02-04T11:30:08;9.45;;;2.00;;
15748;SDS011;7976;52.526;13.326;2024-02-04T11:32:37;7.57;;;1.42;;
15748;SDS011;7976;52.526;13.326;2024-02-04T11:35:06;9.30;;;2.15;;
15748;SDS011;7976;52.526;13.326;2024-02-04T11:37:36;8.88;;;1.70;;
15748;SDS011;7976;52.526;13.326;2024-02-04T11:40:07;10.63;;;1.67;;
15748;SDS011;7976;52.526;13.326;2024-02-04T11:42:41;8.70;;;1.73;;
15748;SDS011;7976;52.526;13.326;2024-02-04T11:45:09;8.88;;;1.48;;
15748;SDS011;7976;52.526;13.326;2024-02-04T11:47:40;7.18;;;1.15;;
15748;SDS011;7976;52.526;13.326;2024-02-04T11:50:08;8.00;;;1.40;;
15748;SDS011;7976;52.526;13.326;2024-02-04T11:52:35;10.25;;;1.60;;
15748;SDS011;7976;52.526;13.326;2024-02-04T11:55:02;9.43;;;1.70;;
15748;SDS011;7976;52.526;13.326;2024-02-04T11:57:32;5.20;;;1.15;;
15748;SDS011;7976;52.526;13.326;2024-02-04T11:59:59;9.25;;;2.05;;
15748;SDS011;7976;52.526;13.326;2024-02-04T12:02:31;6.03;;;1.63;;
15748;SDS011;7976;52.526;13.326;2024-02-04T12:04:59;5.22;;;1.63;;
15748;SDS011;7976;52.526;13.326;2024-02-04T12:07:27;9.55;;;1.90;;
15748;SDS011;7976;52.526;13.326;2024-02-04T12:09:55;8.90;;;1.55;;
15748;SDS011;7976;52.526;13.326;2024-02-04T12:12:23;8.80;;;2.10;;
15748;SDS011;7976;52.526;13.326;2024-02-04T12:14:51;9.30;;;1.98;;
15748;SDS011;7976;52.526;13.326;2024-02-04T12:17:19;7.65;;;1.73;;
15748;SDS011;7976;52.526;13.326;2024-02-04T12:19:46;9.07;;;1.98;;
15748;SDS011;7976;52.526;13.326;2024-02-04T12:22:16;5.97;;;1.48;;
15748;SDS011;7976;52.526;13.326;2024-02-04T12:24:43;6.95;;;1.50;;
15748;SDS011;7976;52.526;13.326;2024-02-04T12:27:11;6.97;;;1.63;;
15748;SDS011;7976;52.526;13.326;2024-02-04T12:29:42;6.32;;;1.75;;
15748;SDS011;7976;52.526;13.326;2024-02-04T12:32:08;6.88;;;1.33;;
15748;SDS011;7976;52.526;13.326;2024-02-04T12:34:35;6.97;;;1.58;;
15748;SDS011;7976;52.526;13.326;2024-02-04T12:37:05;6.88;;;1.60;;
15748;SDS011;7976;52.526;13.326;2024-02-04T12:39:33;10.43;;;2.25;;
15748;SDS011;7976;52.526;13.326;2024-02-04T12:42:00;9.90;;;1.75;;
15748;SDS011;7976;52.526;13.326;2024-02-04T12:44:27;8.15;;;1.40;;
15748;SDS011;7976;52.526;13.326;2024-02-04T12:46:54;12.10;;;2.85;;
15748;SDS011;7976;52.526;13.326;2024-02-04T12:49:21;10.02;;;2.05;;
15748;SDS011;7976;52.526;13.326;2024-02-04T12:51:49;11.18;;;2.10;;
15748;SDS011;7976;52.526;13.326;2024-02-04T12:54:19;14.10;;;2.00;;
15748;SDS011;7976;52.526;13.326;2024-02-04T12:56:48;10.45;;;1.98;;
15748;SDS011;7976;52.526;13.326;2024-02-04T12:59:23;8.07;;;1.50;;
15748;SDS011;7976;52.526;13.326;2024-02-04T13:01:55;8.73;;;2.38;;
15748;SDS011;7976;52.526;13.326;2024-02-04T13:04:23;7.75;;;1.50;;
15748;SDS011;7976;52.526;13.326;2024-02-04T13:06:51;8.85;;;1.90;;
15748;SDS011;7976;52.526;13.326;2024-02-04T13:09:18;7.35;;;1.50;;
15748;SDS011;7976;52.526;13.326;2024-02-04T13:11:45;6.95;;;1.60;;
15748;SDS011;7976;52.526;13.326;2024-02-04T13:14:14;11.52;;;1.70;;
15748;SDS011;7976;52.526;13.326;2024-02-04T13:16:41;7.68;;;1.40;;
15748;SDS011;7976;52.526;13.326;2024-02-04T13:19:08;8.93;;;1.73;;
15748;SDS011;7976;52.526;13.326;2024-02-04T13:21:35;10.00;;;1.55;;
15748;SDS011;7976;52.526;13.326;2024-02-04T13:24:02;13.60;;;2.42;;
15748;SDS011;7976;52.526;13.326;2024-02-04T13:26:31;11.30;;;1.98;;
15748;SDS011;7976;52.526;13.326;2024-02-04T13:28:59;9.85;;;2.05;;
15748;SDS011;7976;52.526;13.326;2024-02-04T13:31:26;8.57;;;1.90;;
15748;SDS011;7976;52.526;13.326;2024-02-04T13:33:53;11.80;;;1.95;;
15748;SDS011;7976;52.526;13.326;2024-02-04T13:36:20;7.25;;;1.70;;
15748;SDS011;7976;52.526;13.326;2024-02-04T13:38:48;9.13;;;1.63;;
15748;SDS011;7976;52.526;13.326;2024-02-04T13:41:15;10.10;;;1.85;;
15748;SDS011;7976;52.526;13.326;2024-02-04T13:43:42;13.45;;;2.13;;
15748;SDS011;7976;52.526;13.326;2024-02-04T13:46:11;9.30;;;2.15;;
15748;SDS011;7976;52.526;13.326;2024-02-04T13:48:38;6.70;;;1.75;;
15748;SDS011;7976;52.526;13.326;2024-02-04T13:51:05;10.85;;;2.03;;
15748;SDS011;7976;52.526;13.326;2024-02-04T13:53:32;11.57;;;2.30;;
15748;SDS011;7976;52.526;13.326;2024-02-04T13:56:00;12.38;;;2.00;;
15748;SDS011;7976;52.526;13.326;2024-02-04T13:58:27;11.00;;;1.90;;
15748;SDS011;7976;52.526;13.326;2024-02-04T14:00:54;9.63;;;1.65;;
15748;SDS011;7976;52.526;13.326;2024-02-04T14:03:23;6.03;;;1.40;;
15748;SDS011;7976;52.526;13.326;2024-02-04T14:05:52;10.05;;;1.85;;
15748;SDS011;7976;52.526;13.326;2024-02-04T14:08:20;11.75;;;1.95;;
15748;SDS011;7976;52.526;13.326;2024-02-04T14:10:48;9.68;;;2.05;;
15748;SDS011;7976;52.526;13.326;2024-02-04T14:13:15;10.30;;;1.77;;
15748;SDS011;7976;52.526;13.326;2024-02-04T14:15:43;11.43;;;1.98;;
15748;SDS011;7976;52.526;13.326;2024-02-04T14:18:10;9.57;;;1.67;;
15748;SDS011;7976;52.526;13.326;2024-02-04T14:20:39;11.18;;;2.00;;
15748;SDS011;7976;52.526;13.326;2024-02-04T14:23:06;7.88;;;1.52;;
15748;SDS011;7976;52.526;13.326;2024-02-04T14:25:37;11.95;;;2.35;;
15748;SDS011;7976;52.526;13.326;2024-02-04T14:28:04;7.45;;;1.58;;
15748;SDS011;7976;52.526;13.326;2024-02-04T14:30:32;11.45;;;1.90;;
15748;SDS011;7976;52.526;13.326;2024-02-04T14:33:01;9.02;;;1.60;;
15748;SDS011;7976;52.526;13.326;2024-02-04T14:35:29;12.25;;;1.60;;
15748;SDS011;7976;52.526;13.326;2024-02-04T14:37:58;7.95;;;1.50;;
15748;SDS011;7976;52.526;13.326;2024-02-04T14:40:25;11.63;;;1.77;;
15748;SDS011;7976;52.526;13.326;2024-02-04T14:42:51;9.48;;;1.92;;
15748;SDS011;7976;52.526;13.326;2024-02-04T14:45:19;13.93;;;2.17;;